KROA/ROA METAR and TAF weather

Enter ICAO airport designator
Station Type Date Time Source
KROA METAR 2022/09/29 20:54 UTC NOAA

KROA 292054Z 05011KT 10SM FEW050 21/07 A3029 RMK AO2 SLP252 T02060067 56013


Station Type Date Time Source
KROA Decoded METAR 2022/09/29 20:54 UTC NOAA

ROANOKE REGIONAL AIRPORT, VA, United States (KROA) 37-19N 079-58W 362M
Sep 29, 2022 - 04:54 PM EDT / 2022.09.29 2054 UTC
Wind: from the NE (050 degrees) at 13 MPH (11 KT):0
Visibility: 10 mile(s):0
Sky conditions: mostly clear
Temperature: 69.1 F (20.6 C)
Dew Point: 44.1 F (6.7 C)
Relative Humidity: 40%
Pressure (altimeter): 30.29 in. Hg (1025 hPa)
Pressure tendency: 0.04 inches (1.3 hPa) lower than three hours ago
ob: KROA 292054Z 05011KT 10SM FEW050 21/07 A3029 RMK AO2 SLP252 T02060067 56013
cycle: 21

Station Type Date Time Source
KROA TAF 2022/09/29 18:36 UTC NOAA

TAF KROA 291733Z 2918/3018 02010G21KT P6SM FEW040 BKN250
FM300000 02007G15KT P6SM OVC025
FM301300 03010G18KT P6SM OVC150

Example: see airport list